Time;durP1;ratioP1;P1;durP2;ratioP2;P2;SDS_P1;SDS_P2;PMS_P1;PMS_P2;Temp;Humidity;BMP_temperature;BMP_pressure;BME280_temperature;BME280_humidity;BME280_pressure;Samples;Min_cycle;Max_cycle;Signal;HPM_P1;HPM_P2
2021/06/28 00:01:14;;;;;;;5.63;5.13;;;22.10;99.90;;;;;;5040849;28;20575;-84
2021/06/28 00:03:45;;;;;;;5.60;5.10;;;22.10;99.90;;;;;;5024310;28;20654;-83
2021/06/28 00:06:15;;;;;;;7.23;6.53;;;22.10;99.90;;;;;;5057908;28;20635;-84
2021/06/28 00:08:41;;;;;;;7.93;7.13;;;22.10;99.90;;;;;;5054675;23;20730;-83
2021/06/28 00:11:08;;;;;;;7.83;7.23;;;22.00;99.90;;;;;;5023633;28;20576;-84
2021/06/28 00:13:36;;;;;;;7.27;6.17;;;22.00;99.90;;;;;;5010740;28;20585;-83
2021/06/28 00:16:01;;;;;;;6.77;6.17;;;22.00;99.90;;;;;;4987071;28;20585;-84
2021/06/28 00:18:28;;;;;;;7.17;6.50;;;22.00;99.90;;;;;;5031086;28;20611;-83
2021/06/28 00:20:54;;;;;;;7.83;7.20;;;21.90;99.90;;;;;;5031973;28;20173;-83
2021/06/28 00:23:20;;;;;;;8.07;7.37;;;21.90;99.90;;;;;;5030904;28;20595;-83
2021/06/28 00:25:45;;;;;;;7.27;6.57;;;21.90;99.90;;;;;;5014176;28;20584;-84
2021/06/28 00:28:11;;;;;;;7.53;6.90;;;21.90;99.90;;;;;;5031696;28;20615;-84
2021/06/28 00:30:41;;;;;;;7.87;7.17;;;21.90;99.90;;;;;;5014199;28;20551;-84
2021/06/28 00:33:13;;;;;;;9.87;6.90;;;21.90;99.90;;;;;;5030779;28;20561;-84
2021/06/28 00:35:40;;;;;;;7.10;6.40;;;21.80;99.90;;;;;;5031901;28;20573;-85
2021/06/28 00:38:06;;;;;;;8.57;7.67;;;21.80;99.90;;;;;;5031500;28;20640;-83
2021/06/28 00:40:33;;;;;;;6.80;6.30;;;21.80;99.90;;;;;;5034427;28;20662;-85
2021/06/28 00:42:59;;;;;;;8.10;7.40;;;21.80;99.90;;;;;;5014376;28;20671;-84
2021/06/28 00:45:34;;;;;;;7.20;6.50;;;21.80;99.90;;;;;;5030366;28;20739;-84
2021/06/28 00:48:03;;;;;;;7.73;7.03;;;21.80;99.90;;;;;;5031562;28;20611;-85
2021/06/28 00:50:31;;;;;;;10.43;6.87;;;21.70;99.90;;;;;;5030435;28;20574;-84
2021/06/28 00:53:03;;;;;;;8.17;7.37;;;21.70;99.90;;;;;;5016596;28;21143;-84
2021/06/28 00:55:29;;;;;;;7.77;6.97;;;21.70;99.90;;;;;;5034243;28;20576;-84
2021/06/28 00:57:55;;;;;;;8.30;7.57;;;21.70;99.90;;;;;;5033992;28;21035;-85
2021/06/28 01:00:22;;;;;;;7.67;7.07;;;21.60;99.90;;;;;;5034655;28;20615;-84
2021/06/28 01:02:48;;;;;;;7.57;6.97;;;21.60;99.90;;;;;;5018297;28;20591;-85
2021/06/28 01:05:20;;;;;;;8.53;7.77;;;21.60;99.90;;;;;;5017928;28;20636;-85
2021/06/28 01:07:47;;;;;;;7.43;6.83;;;21.60;99.90;;;;;;5017132;28;20723;-84
2021/06/28 01:10:15;;;;;;;8.40;7.50;;;21.60;99.90;;;;;;5033836;28;21172;-84
2021/06/28 01:12:42;;;;;;;8.23;7.17;;;21.50;99.90;;;;;;5035079;28;20935;-84
2021/06/28 01:15:08;;;;;;;7.37;6.77;;;21.50;99.90;;;;;;5034078;28;20576;-85
2021/06/28 01:17:35;;;;;;;7.87;7.17;;;21.50;99.90;;;;;;5036570;28;20653;-84
2021/06/28 01:20:25;;;;;;;7.00;6.40;;;21.50;99.90;;;;;;5016837;28;21183;-84
2021/06/28 01:22:54;;;;;;;7.80;7.20;;;21.50;99.90;;;;;;5034917;28;20575;-85
2021/06/28 01:25:23;;;;;;;7.40;6.77;;;21.50;99.90;;;;;;5017043;28;20616;-84
2021/06/28 01:27:49;;;;;;;8.17;7.37;;;21.40;99.90;;;;;;5033444;28;20596;-84
2021/06/28 01:30:20;;;;;;;9.20;8.40;;;21.40;99.90;;;;;;5033640;28;21155;-84
2021/06/28 01:32:47;;;;;;;8.80;8.03;;;21.40;99.90;;;;;;5017589;28;20580;-84
2021/06/28 01:35:17;;;;;;;8.27;7.50;;;21.40;99.90;;;;;;5017309;28;20587;-84
2021/06/28 01:37:43;;;;;;;8.70;7.90;;;21.40;99.90;;;;;;5017246;28;20949;-85
2021/06/28 01:40:10;;;;;;;8.80;8.10;;;21.40;99.90;;;;;;5033885;28;20591;-85
2021/06/28 01:42:38;;;;;;;10.07;9.07;;;21.40;99.90;;;;;;5033596;28;20603;-85
2021/06/28 01:45:10;;;;;;;10.73;9.80;;;21.40;99.90;;;;;;5017563;28;21180;-84
2021/06/28 01:47:37;;;;;;;9.10;8.30;;;21.40;99.90;;;;;;5035488;28;20606;-85
2021/06/28 01:50:05;;;;;;;11.27;10.17;;;21.40;99.90;;;;;;5017955;28;21209;-85
2021/06/28 01:52:31;;;;;;;10.47;9.47;;;21.40;99.90;;;;;;5035637;28;21166;-85
2021/06/28 01:54:56;;;;;;;9.67;8.83;;;21.40;99.90;;;;;;5017443;28;20641;-84
2021/06/28 01:57:22;;;;;;;8.33;7.57;;;21.40;99.90;;;;;;5016636;28;20687;-84
2021/06/28 01:59:48;;;;;;;9.07;8.27;;;21.40;99.90;;;;;;5034443;28;20169;-84
2021/06/28 02:02:13;;;;;;;8.90;7.90;;;21.40;99.90;;;;;;5032986;28;20180;-84
2021/06/28 02:04:39;;;;;;;9.57;8.77;;;21.40;99.90;;;;;;5015520;28;20216;-84
2021/06/28 02:07:07;;;;;;;9.50;8.70;;;21.40;99.90;;;;;;5016245;28;20173;-83
2021/06/28 02:09:35;;;;;;;9.67;8.67;;;21.40;99.90;;;;;;5016222;28;20224;-84
2021/06/28 02:12:01;;;;;;;10.23;9.13;;;21.40;99.90;;;;;;5032908;28;20587;-84
2021/06/28 02:14:27;;;;;;;8.50;7.70;;;21.40;99.90;;;;;;5033112;28;20580;-85
2021/06/28 02:16:53;;;;;;;10.03;9.13;;;21.40;99.90;;;;;;5033862;28;20573;-85
2021/06/28 02:19:19;;;;;;;9.80;9.00;;;21.40;99.90;;;;;;5033542;28;20604;-84
2021/06/28 02:21:47;;;;;;;9.53;8.73;;;21.40;99.90;;;;;;5016140;28;20690;-84
2021/06/28 02:24:14;;;;;;;9.50;8.57;;;21.40;99.90;;;;;;5032709;28;21234;-84
2021/06/28 02:26:43;;;;;;;9.77;8.77;;;21.30;99.90;;;;;;5032526;28;20587;-84
2021/06/28 02:29:09;;;;;;;9.40;8.63;;;21.30;99.90;;;;;;5033962;28;20598;-84
2021/06/28 02:31:36;;;;;;;9.57;8.60;;;21.30;99.90;;;;;;5033534;28;21183;-84
2021/06/28 02:34:03;;;;;;;10.53;9.50;;;21.30;99.90;;;;;;5015836;28;20587;-84
2021/06/28 02:36:28;;;;;;;10.53;9.30;;;21.30;99.90;;;;;;5032083;28;20664;-85
2021/06/28 02:38:56;;;;;;;9.87;8.97;;;21.20;99.90;;;;;;5033119;28;20612;-84
2021/06/28 02:41:23;;;;;;;10.33;9.33;;;21.20;99.90;;;;;;5033504;28;20632;-84
2021/06/28 02:43:51;;;;;;;10.83;9.83;;;21.20;99.90;;;;;;5015772;28;20628;-85
2021/06/28 02:46:20;;;;;;;9.90;8.90;;;21.20;99.90;;;;;;5031911;28;20572;-85
2021/06/28 02:48:46;;;;;;;12.37;10.57;;;21.10;99.90;;;;;;5031802;28;20683;-85
2021/06/28 02:51:14;;;;;;;10.10;9.17;;;21.10;99.90;;;;;;5015822;28;20675;-84
2021/06/28 02:53:40;;;;;;;11.33;10.23;;;21.10;99.90;;;;;;5015618;28;20248;-84
2021/06/28 02:56:15;;;;;;;12.07;9.80;;;21.00;99.90;;;;;;5015401;28;20942;-85
2021/06/28 02:58:44;;;;;;;10.93;9.97;;;21.10;99.90;;;;;;5015155;28;20636;-85
2021/06/28 03:01:11;;;;;;;10.73;9.73;;;21.10;99.90;;;;;;4999514;28;20587;-85
2021/06/28 03:03:36;;;;;;;11.27;10.27;;;21.00;99.90;;;;;;5033574;28;20576;-84
2021/06/28 03:06:02;;;;;;;11.37;10.37;;;21.00;99.90;;;;;;5034403;28;20553;-84
2021/06/28 03:08:28;;;;;;;9.40;8.50;;;21.00;99.90;;;;;;5032471;28;20216;-85
2021/06/28 03:10:54;;;;;;;10.03;9.17;;;21.00;99.90;;;;;;5033172;28;20560;-84
2021/06/28 03:13:20;;;;;;;10.90;9.90;;;21.00;99.90;;;;;;5032189;28;20568;-84
2021/06/28 03:15:45;;;;;;;10.00;9.10;;;21.00;99.90;;;;;;5015442;28;20545;-84
2021/06/28 03:18:11;;;;;;;9.37;8.57;;;21.00;99.90;;;;;;5023803;28;20264;-84
2021/06/28 03:20:37;;;;;;;12.40;11.20;;;21.00;99.90;;;;;;5031737;28;20170;-85
2021/06/28 03:23:03;;;;;;;10.80;9.80;;;21.00;99.90;;;;;;5032945;28;20260;-84
2021/06/28 03:25:28;;;;;;;11.90;9.87;;;21.00;99.90;;;;;;5032549;28;20202;-84
2021/06/28 03:27:54;;;;;;;10.77;9.80;;;21.00;99.90;;;;;;5014266;28;20858;-84
2021/06/28 03:30:20;;;;;;;11.33;10.23;;;21.00;99.90;;;;;;5014643;28;20261;-78
2021/06/28 03:32:46;;;;;;;11.60;10.63;;;21.00;99.90;;;;;;5032325;28;20166;-78
2021/06/28 03:35:13;;;;;;;10.83;9.93;;;21.00;99.90;;;;;;5032139;28;20529;-78
2021/06/28 03:37:40;;;;;;;10.20;9.23;;;21.00;99.90;;;;;;5031966;28;20247;-78
2021/06/28 03:40:11;;;;;;;11.83;10.70;;;21.00;99.90;;;;;;5031818;28;21143;-78
2021/06/28 03:42:38;;;;;;;11.43;10.33;;;21.00;99.90;;;;;;5031074;28;21119;-77
2021/06/28 03:45:06;;;;;;;10.70;9.60;;;21.00;99.90;;;;;;5032055;28;20670;-78
2021/06/28 03:47:32;;;;;;;11.90;10.90;;;21.00;99.90;;;;;;5014022;28;20604;-78
2021/06/28 03:49:58;;;;;;;12.50;11.20;;;21.00;99.90;;;;;;5031682;28;20618;-78
2021/06/28 03:52:24;;;;;;;10.97;10.03;;;21.00;99.90;;;;;;5030817;28;20615;-78
2021/06/28 03:54:50;;;;;;;11.87;10.83;;;21.00;99.90;;;;;;5031601;28;20166;-78
2021/06/28 03:57:16;;;;;;;12.33;11.10;;;21.00;99.90;;;;;;5031857;28;20923;-78
2021/06/28 03:59:41;;;;;;;13.10;11.90;;;21.00;99.90;;;;;;5031670;28;20580;-78
2021/06/28 04:02:07;;;;;;;12.70;11.40;;;21.00;99.90;;;;;;5030770;28;20633;-79
2021/06/28 04:04:33;;;;;;;13.00;11.70;;;21.00;99.90;;;;;;5021238;28;20212;-79
2021/06/28 04:06:58;;;;;;;10.87;9.97;;;21.10;99.90;;;;;;4994432;28;20202;-79
2021/06/28 04:09:25;;;;;;;12.67;11.57;;;21.20;99.90;;;;;;4993895;28;20202;-79
2021/06/28 04:11:50;;;;;;;11.77;10.67;;;21.20;99.90;;;;;;4994185;28;20178;-79
2021/06/28 04:14:16;;;;;;;12.00;11.00;;;21.20;99.90;;;;;;5012001;28;20922;-79
2021/06/28 04:16:42;;;;;;;12.67;11.57;;;21.30;99.90;;;;;;4978143;28;20182;-78
2021/06/28 04:19:08;;;;;;;12.90;11.80;;;21.30;99.90;;;;;;5010431;28;20202;-79
2021/06/28 04:21:34;;;;;;;12.10;10.90;;;21.30;99.90;;;;;;4994455;28;20576;-78
2021/06/28 04:24:03;;;;;;;12.27;11.17;;;21.40;99.90;;;;;;5011907;28;20209;-78
2021/06/28 04:26:30;;;;;;;14.10;12.23;;;21.40;99.90;;;;;;5011862;28;20568;-78
2021/06/28 04:28:57;;;;;;;14.80;13.40;;;21.50;99.90;;;;;;4998009;28;20617;-78
2021/06/28 04:31:22;;;;;;;15.97;14.33;;;21.50;99.90;;;;;;5015973;28;20989;-79
2021/06/28 04:33:48;;;;;;;15.83;14.23;;;21.60;99.90;;;;;;4998594;28;20598;-79
2021/06/28 04:36:14;;;;;;;17.47;15.77;;;21.60;99.90;;;;;;5015872;28;20172;-78
2021/06/28 04:38:40;;;;;;;15.53;14.10;;;21.70;99.90;;;;;;5027977;28;20190;-79
2021/06/28 04:41:05;;;;;;;14.40;13.10;;;21.80;99.90;;;;;;5010145;28;20174;-78
2021/06/28 04:43:31;;;;;;;17.17;15.57;;;21.90;99.90;;;;;;5011182;28;20264;-78
2021/06/28 04:45:57;;;;;;;15.67;14.20;;;22.00;99.90;;;;;;5027707;28;20182;-78
2021/06/28 04:48:23;;;;;;;15.47;14.07;;;22.10;99.90;;;;;;5033752;28;20197;-78
2021/06/28 04:50:49;;;;;;;14.97;13.67;;;22.20;99.90;;;;;;5034393;28;20178;-78
2021/06/28 04:53:15;;;;;;;15.50;14.00;;;22.30;99.90;;;;;;5034156;28;20173;-79
2021/06/28 04:55:40;;;;;;;14.60;13.30;;;22.30;99.90;;;;;;5018209;28;20572;-79
2021/06/28 04:58:06;;;;;;;18.00;15.80;;;22.40;99.90;;;;;;5035975;28;21051;-81
2021/06/28 05:00:32;;;;;;;15.53;14.17;;;22.40;99.90;;;;;;5017371;28;20847;-81
2021/06/28 05:02:58;;;;;;;14.90;13.40;;;22.50;99.90;;;;;;5018026;28;20216;-80
2021/06/28 05:05:24;;;;;;;15.20;13.60;;;22.60;99.90;;;;;;5035462;28;21070;-81
2021/06/28 05:07:50;;;;;;;14.37;13.10;;;22.70;99.90;;;;;;5033672;28;20199;-80
2021/06/28 05:10:16;;;;;;;17.23;13.60;;;22.80;99.90;;;;;;5016505;28;20572;-81
2021/06/28 05:12:42;;;;;;;14.77;13.10;;;23.00;99.90;;;;;;5033770;28;20166;-80
2021/06/28 05:15:10;;;;;;;14.20;13.00;;;23.10;99.90;;;;;;5032381;28;20972;-81
2021/06/28 05:17:36;;;;;;;14.07;12.87;;;23.20;99.90;;;;;;5032241;28;20611;-81
2021/06/28 05:20:04;;;;;;;12.37;11.37;;;23.40;99.90;;;;;;5033753;28;20908;-82
2021/06/28 05:22:30;;;;;;;12.97;11.77;;;23.50;99.90;;;;;;5033695;28;20564;-82
2021/06/28 05:24:56;;;;;;;12.13;11.00;;;23.50;99.90;;;;;;5032396;28;21030;-82
2021/06/28 05:27:22;;;;;;;12.03;10.83;;;23.60;99.90;;;;;;5015342;28;20605;-82
2021/06/28 05:29:54;;;;;;;12.37;11.17;;;23.70;99.90;;;;;;5015130;28;21167;-82
2021/06/28 05:32:22;;;;;;;12.20;11.10;;;23.70;99.90;;;;;;5033116;28;20909;-82
2021/06/28 05:34:48;;;;;;;12.70;11.47;;;23.80;99.90;;;;;;5030671;28;20600;-82
2021/06/28 05:37:13;;;;;;;12.43;11.17;;;23.90;99.90;;;;;;5028776;28;20595;-83
2021/06/28 05:39:39;;;;;;;10.57;9.67;;;23.90;99.90;;;;;;5005697;28;20576;-85
2021/06/28 05:42:05;;;;;;;11.17;10.17;;;24.00;99.90;;;;;;5030005;28;20182;-85
2021/06/28 05:44:31;;;;;;;11.10;10.10;;;24.10;99.90;;;;;;5007190;28;20596;-84
2021/06/28 05:46:56;;;;;;;12.80;11.60;;;24.10;99.90;;;;;;5032848;28;20577;-83
2021/06/28 05:49:22;;;;;;;10.83;9.73;;;24.10;99.90;;;;;;5032690;28;20239;-83
2021/06/28 05:51:48;;;;;;;12.83;11.20;;;24.10;99.90;;;;;;5033100;28;20154;-83
2021/06/28 05:54:14;;;;;;;11.47;10.37;;;24.20;99.90;;;;;;5032928;28;20197;-82
2021/06/28 05:56:39;;;;;;;12.00;10.90;;;24.30;99.90;;;;;;5014831;28;20176;-83
2021/06/28 05:59:05;;;;;;;13.17;11.30;;;24.40;99.90;;;;;;5032795;28;20186;-83
2021/06/28 06:01:31;;;;;;;11.97;10.83;;;24.60;99.90;;;;;;5034137;28;20170;-83
2021/06/28 06:03:56;;;;;;;13.00;11.80;;;24.70;99.90;;;;;;5032770;28;20297;-84
2021/06/28 06:06:23;;;;;;;11.30;10.40;;;24.70;99.90;;;;;;5032039;28;20166;-84
2021/06/28 06:08:48;;;;;;;11.53;10.47;;;24.80;99.90;;;;;;4977227;28;1063745;-78
2021/06/28 06:11:14;;;;;;;11.00;10.00;;;24.80;99.90;;;;;;5014103;28;20170;-78
2021/06/28 06:13:40;;;;;;;10.77;9.90;;;24.80;99.90;;;;;;5013797;28;20174;-78
2021/06/28 06:16:06;;;;;;;9.50;8.70;;;24.90;99.90;;;;;;5013433;28;20500;-78
2021/06/28 06:18:31;;;;;;;9.30;8.60;;;25.10;99.90;;;;;;4995471;28;20674;-78
2021/06/28 06:20:57;;;;;;;9.43;8.73;;;25.30;99.90;;;;;;4996256;28;20196;-78
2021/06/28 06:23:23;;;;;;;10.60;9.70;;;25.40;99.90;;;;;;4996042;28;20577;-78
2021/06/28 06:25:49;;;;;;;10.27;9.57;;;25.50;99.90;;;;;;5013652;28;20632;-78
2021/06/28 06:28:15;;;;;;;9.77;8.90;;;25.50;99.90;;;;;;5013221;28;20208;-78
2021/06/28 06:30:42;;;;;;;11.00;10.00;;;25.50;99.90;;;;;;5013644;28;20170;-78
2021/06/28 06:33:08;;;;;;;10.90;9.80;;;25.50;99.90;;;;;;4995801;28;20650;-78
2021/06/28 06:35:34;;;;;;;9.07;8.33;;;25.50;99.90;;;;;;4995952;28;20569;-79
2021/06/28 06:38:01;;;;;;;7.77;7.10;;;25.50;99.90;;;;;;5012059;28;21203;-79
2021/06/28 06:40:28;;;;;;;8.50;7.70;;;25.60;99.90;;;;;;5013690;28;20162;-78
2021/06/28 06:42:56;;;;;;;7.60;7.00;;;25.70;99.90;;;;;;5013485;28;20677;-78
2021/06/28 06:45:22;;;;;;;8.43;7.67;;;25.80;99.90;;;;;;5012378;28;20986;-78
2021/06/28 06:47:49;;;;;;;8.43;7.63;;;25.90;99.90;;;;;;4995665;28;20687;-78
2021/06/28 06:50:16;;;;;;;7.00;6.40;;;25.80;99.90;;;;;;5012990;28;21082;-78
2021/06/28 06:52:46;;;;;;;7.47;6.87;;;25.90;99.90;;;;;;5013705;28;20613;-78
2021/06/28 06:55:12;;;;;;;6.23;5.73;;;25.80;99.90;;;;;;4995610;28;20582;-78
2021/06/28 06:57:38;;;;;;;7.03;6.23;;;25.70;99.90;;;;;;5013040;28;20592;-78
2021/06/28 07:00:07;;;;;;;7.20;6.70;;;25.70;99.90;;;;;;4995615;28;20631;-79
2021/06/28 07:02:33;;;;;;;7.40;6.73;;;25.60;99.90;;;;;;4996132;28;20574;-79
2021/06/28 07:04:59;;;;;;;6.70;6.20;;;25.50;99.90;;;;;;5013919;28;21234;-76
2021/06/28 07:07:24;;;;;;;6.80;6.30;;;25.40;99.90;;;;;;5013432;28;20195;-78
2021/06/28 07:09:50;;;;;;;7.30;6.70;;;25.40;99.90;;;;;;5015923;28;20209;-77
2021/06/28 07:12:17;;;;;;;7.93;7.23;;;25.30;99.90;;;;;;5019556;28;20178;-77
2021/06/28 07:14:43;;;;;;;6.43;5.83;;;25.30;99.90;;;;;;5018904;28;20577;-77
2021/06/28 07:17:09;;;;;;;7.70;7.00;;;25.30;99.90;;;;;;4997097;28;20683;-77
2021/06/28 07:19:35;;;;;;;7.83;7.13;;;25.30;99.90;;;;;;5023017;28;20573;-78
2021/06/28 07:22:00;;;;;;;7.10;6.50;;;25.50;99.90;;;;;;5021656;28;21203;-78
2021/06/28 07:24:26;;;;;;;7.33;6.73;;;25.90;99.90;;;;;;5012643;28;20206;-78
2021/06/28 07:26:52;;;;;;;7.70;7.00;;;26.30;99.90;;;;;;5008073;28;20174;-78
2021/06/28 07:29:18;;;;;;;7.83;7.13;;;26.80;99.90;;;;;;5025495;28;20645;-78
2021/06/28 07:31:44;;;;;;;7.13;6.63;;;27.10;99.90;;;;;;5031677;28;20604;-78
2021/06/28 07:34:10;;;;;;;6.40;5.90;;;27.30;99.90;;;;;;5032144;28;20577;-77
2021/06/28 07:36:36;;;;;;;7.17;6.57;;;27.40;99.90;;;;;;5024432;28;20174;-78
2021/06/28 07:39:06;;;;;;;7.10;6.40;;;27.90;99.90;;;;;;4996281;28;20565;-79
2021/06/28 07:41:33;;;;;;;7.00;6.50;;;28.50;99.90;;;;;;4996072;28;20171;-78
2021/06/28 07:44:00;;;;;;;9.03;6.13;;;29.30;99.90;;;;;;4995894;28;20640;-78
2021/06/28 07:46:27;;;;;;;6.77;6.17;;;30.30;99.90;;;;;;4995434;28;20632;-78
2021/06/28 07:48:53;;;;;;;6.80;6.20;;;31.30;99.90;;;;;;4994813;28;20723;-78
2021/06/28 07:51:18;;;;;;;7.10;6.40;;;32.10;99.90;;;;;;4995242;28;21056;-77
2021/06/28 07:53:44;;;;;;;5.90;5.43;;;33.00;99.90;;;;;;5012324;28;20583;-76
2021/06/28 07:56:17;;;;;;;6.57;6.07;;;33.80;99.90;;;;;;5012111;28;20162;-77
2021/06/28 07:58:49;;;;;;;5.50;5.00;;;34.70;99.90;;;;;;5021255;28;20624;-77
2021/06/28 08:01:16;;;;;;;5.73;5.33;;;35.40;99.90;;;;;;4993612;28;20592;-77
2021/06/28 08:03:45;;;;;;;5.90;5.40;;;36.10;99.90;;;;;;4993262;28;20754;-77
2021/06/28 08:06:13;;;;;;;5.87;5.47;;;36.80;99.90;;;;;;5021851;28;20596;-77
2021/06/28 08:08:40;;;;;;;5.57;5.17;;;37.40;99.90;;;;;;5014925;28;20989;-79
2021/06/28 08:11:08;;;;;;;5.43;4.53;;;37.40;99.90;;;;;;5011156;28;20606;-77
2021/06/28 08:13:35;;;;;;;5.30;4.90;;;37.40;99.90;;;;;;5012235;28;20684;-77
2021/06/28 08:16:01;;;;;;;5.70;5.20;;;37.50;97.10;;;;;;5012461;28;20591;-78
2021/06/28 08:18:28;;;;;;;5.90;5.40;;;37.60;96.30;;;;;;5011022;28;20613;-78
2021/06/28 08:20:54;;;;;;;4.90;4.43;;;37.60;95.60;;;;;;4994141;28;20589;-77
2021/06/28 08:23:20;;;;;;;5.37;4.93;;;37.80;95.60;;;;;;5027415;28;20573;-78
2021/06/28 08:25:45;;;;;;;5.67;5.20;;;38.00;93.70;;;;;;5030966;28;20208;-77
2021/06/28 08:28:12;;;;;;;5.13;4.73;;;38.00;89.10;;;;;;5026740;28;20186;-78
2021/06/28 08:30:38;;;;;;;5.40;5.00;;;37.80;91.10;;;;;;5010224;28;20634;-78
2021/06/28 08:33:04;;;;;;;3.93;3.73;;;38.20;90.20;;;;;;5011461;28;20561;-78
2021/06/28 08:35:30;;;;;;;4.80;4.40;;;38.40;89.70;;;;;;5012434;28;20562;-78
2021/06/28 08:37:56;;;;;;;9.80;4.70;;;38.50;87.10;;;;;;4993695;28;20601;-78
2021/06/28 08:40:22;;;;;;;4.50;4.20;;;38.60;84.50;;;;;;5027043;28;20619;-78
2021/06/28 08:42:48;;;;;;;3.70;3.40;;;38.80;82.10;;;;;;5031202;28;20627;-78
2021/06/28 08:45:14;;;;;;;4.20;3.80;;;39.00;81.20;;;;;;5026995;28;20563;-78
2021/06/28 08:47:41;;;;;;;3.50;3.30;;;39.30;79.30;;;;;;4993526;28;20382;-77
2021/06/28 08:50:09;;;;;;;4.07;3.57;;;39.40;77.30;;;;;;5010905;28;20561;-78
2021/06/28 08:52:39;;;;;;;4.20;3.80;;;39.50;76.90;;;;;;5011444;28;20715;-78
2021/06/28 08:55:07;;;;;;;2.73;2.53;;;39.40;74.40;;;;;;4993882;28;20990;-78
2021/06/28 08:57:47;;;;;;;3.40;3.10;;;39.50;74.70;;;;;;5011012;28;20616;-77
2021/06/28 09:00:46;;;;;;;4.20;3.87;;;39.50;70.70;;;;;;4979094;28;20612;-77
2021/06/28 09:08:11;;;;;;;4.43;4.13;;;38.20;67.40;;;;;;5010359;28;21000;-77
2021/06/28 09:10:42;;;;;;;3.90;3.60;;;37.00;65.70;;;;;;4993875;28;20617;-77
2021/06/28 09:13:08;;;;;;;4.07;3.67;;;36.20;66.40;;;;;;5016463;28;20592;-77
2021/06/28 09:15:37;;;;;;;4.30;4.00;;;35.90;68.00;;;;;;5033373;28;20941;-77
2021/06/28 09:18:26;;;;;;;3.40;3.20;;;35.80;69.20;;;;;;5033001;28;20672;-77
2021/06/28 09:21:09;;;;;;;3.47;3.17;;;35.70;70.10;;;;;;5019439;28;20696;-77
2021/06/28 09:23:38;;;;;;;4.23;3.83;;;35.60;70.00;;;;;;4980931;28;20612;-77
2021/06/28 09:26:10;;;;;;;4.57;3.17;;;35.60;70.20;;;;;;5013320;28;20592;-77
2021/06/28 09:28:43;;;;;;;3.70;3.50;;;35.60;70.30;;;;;;5013195;28;20592;-77
2021/06/28 09:31:15;;;;;;;4.03;3.70;;;35.60;71.30;;;;;;4996763;28;20667;-77
2021/06/28 09:33:41;;;;;;;3.67;3.43;;;35.90;71.50;;;;;;5014455;28;20688;-77
2021/06/28 09:36:21;;;;;;;3.97;3.67;;;36.40;73.10;;;;;;4996530;28;20680;-77
2021/06/28 09:38:47;;;;;;;3.67;3.37;;;37.00;73.90;;;;;;4996434;28;20200;-77
2021/06/28 09:41:19;;;;;;;3.43;3.23;;;37.60;73.70;;;;;;4996288;28;20587;-77
2021/06/28 09:43:45;;;;;;;4.23;3.93;;;37.90;70.80;;;;;;5013999;28;20583;-77
2021/06/28 09:46:22;;;;;;;7.53;3.57;;;37.80;67.60;;;;;;5014139;28;20585;-77
2021/06/28 09:48:50;;;;;;;3.87;3.57;;;37.50;67.10;;;;;;5000222;28;20193;-77
2021/06/28 09:51:25;;;;;;;4.10;3.80;;;37.40;66.00;;;;;;5012971;28;20584;-77
2021/06/28 09:54:16;;;;;;;3.70;3.40;;;37.10;65.10;;;;;;4996987;28;20956;-78
2021/06/28 09:56:50;;;;;;;5.43;3.00;;;36.80;64.20;;;;;;4996603;28;20753;-77
2021/06/28 09:59:21;;;;;;;3.13;2.83;;;36.60;65.50;;;;;;5013816;28;20659;-78
2021/06/28 10:01:48;;;;;;;4.13;3.80;;;36.40;65.20;;;;;;5013693;28;20573;-77
2021/06/28 10:04:44;;;;;;;4.73;4.33;;;36.10;63.90;;;;;;5012733;28;20624;-76
2021/06/28 10:07:20;;;;;;;5.70;5.20;;;35.40;64.10;;;;;;4996019;28;20571;-76
2021/06/28 10:09:46;;;;;;;5.57;5.17;;;34.80;64.90;;;;;;4996007;28;20583;-77
2021/06/28 10:12:20;;;;;;;4.50;4.20;;;34.30;66.20;;;;;;5013822;28;20573;-77
2021/06/28 10:14:46;;;;;;;4.37;4.07;;;34.20;68.00;;;;;;5013555;28;20575;-76
2021/06/28 10:17:12;;;;;;;4.00;3.70;;;34.20;70.00;;;;;;5013498;28;20678;-77
2021/06/28 10:19:41;;;;;;;3.90;3.60;;;34.50;71.90;;;;;;5013446;28;20631;-77
2021/06/28 10:22:07;;;;;;;4.87;4.47;;;35.00;73.10;;;;;;5012353;28;20689;-77
2021/06/28 10:24:35;;;;;;;3.90;3.60;;;35.60;73.40;;;;;;5012778;28;21078;-76
2021/06/28 10:27:02;;;;;;;3.80;3.57;;;35.90;72.30;;;;;;5013483;28;20185;-76
2021/06/28 10:29:28;;;;;;;3.73;3.43;;;36.20;69.70;;;;;;4995616;28;20609;-77
2021/06/28 10:31:54;;;;;;;3.70;3.30;;;36.50;70.50;;;;;;4995808;28;20581;-77
2021/06/28 10:34:20;;;;;;;3.57;3.30;;;36.60;68.70;;;;;;5012061;28;20573;-77
2021/06/28 10:36:46;;;;;;;3.60;3.40;;;36.50;67.10;;;;;;5012013;28;20186;-77
2021/06/28 10:39:31;;;;;;;3.90;3.47;;;36.40;66.50;;;;;;5011683;28;20601;-77
2021/06/28 10:42:00;;;;;;;3.80;3.50;;;36.30;66.00;;;;;;4995794;28;20180;-76
2021/06/28 10:44:46;;;;;;;3.30;3.10;;;36.10;65.30;;;;;;5012971;28;20624;-78
2021/06/28 10:47:12;;;;;;;3.47;3.17;;;35.70;64.80;;;;;;5011947;28;20839;-77
2021/06/28 10:49:45;;;;;;;4.40;4.00;;;35.30;64.80;;;;;;5012948;28;20609;-77
2021/06/28 10:52:14;;;;;;;5.23;4.83;;;34.90;66.50;;;;;;5011841;28;20703;-77
2021/06/28 10:54:39;;;;;;;7.63;6.90;;;34.40;67.30;;;;;;5011816;28;20665;-77
2021/06/28 10:57:10;;;;;;;7.00;5.87;;;33.80;70.30;;;;;;5008489;28;20701;-77
2021/06/28 10:59:46;;;;;;;7.13;6.00;;;33.10;71.60;;;;;;5001301;28;20178;-77
2021/06/28 11:02:13;;;;;;;7.40;5.67;;;32.40;76.50;;;;;;4995793;28;20943;-77
2021/06/28 11:04:56;;;;;;;6.90;6.30;;;31.60;78.60;;;;;;4976067;28;20637;-78
2021/06/28 11:07:22;;;;;;;4.60;4.20;;;30.70;83.10;;;;;;4991708;28;20988;-78
2021/06/28 11:09:51;;;;;;;5.53;5.03;;;29.70;84.20;;;;;;4991810;28;20596;-78
2021/06/28 11:12:33;;;;;;;5.27;4.87;;;29.00;88.10;;;;;;4975799;28;20578;-77
2021/06/28 11:15:22;;;;;;;5.93;5.43;;;28.30;90.90;;;;;;4993272;28;20570;-76
2021/06/28 11:17:52;;;;;;;4.63;4.20;;;27.70;93.60;;;;;;4991653;28;20594;-77
2021/06/28 11:20:24;;;;;;;3.93;3.63;;;27.40;94.10;;;;;;4993176;28;20561;-77
2021/06/28 11:23:00;;;;;;;2.97;2.73;;;27.40;95.80;;;;;;4975635;28;20574;-76
2021/06/28 11:25:38;;;;;;;4.83;3.87;;;27.40;97.80;;;;;;4991486;28;20624;-77
2021/06/28 11:28:03;;;;;;;4.53;4.10;;;27.60;99.90;;;;;;4998096;28;20611;-77
2021/06/28 11:30:35;;;;;;;4.50;4.10;;;28.10;99.90;;;;;;4992925;28;20613;-77
2021/06/28 11:33:07;;;;;;;4.90;4.50;;;28.60;99.90;;;;;;4992972;28;20170;-76
2021/06/28 11:35:46;;;;;;;4.47;4.07;;;29.30;99.90;;;;;;4992629;28;20583;-76
2021/06/28 11:38:14;;;;;;;4.63;4.23;;;29.90;99.90;;;;;;4994405;28;20694;-76
2021/06/28 11:40:41;;;;;;;4.17;3.90;;;30.60;99.90;;;;;;4992545;28;20974;-77
2021/06/28 11:43:07;;;;;;;5.40;4.90;;;31.10;99.90;;;;;;4991294;28;20619;-76
2021/06/28 11:45:49;;;;;;;4.03;3.57;;;31.60;99.90;;;;;;4992254;28;20657;-76
2021/06/28 11:48:31;;;;;;;4.63;4.27;;;32.10;99.90;;;;;;4974968;28;20268;-76
2021/06/28 11:50:58;;;;;;;3.43;3.13;;;32.50;99.90;;;;;;4975150;28;20604;-77
2021/06/28 11:53:24;;;;;;;3.97;3.30;;;32.80;99.90;;;;;;4991275;28;20592;-77
2021/06/28 11:55:50;;;;;;;3.53;3.33;;;33.00;99.90;;;;;;4958780;28;20584;-77
2021/06/28 11:58:22;;;;;;;3.47;3.10;;;33.30;99.90;;;;;;4992058;28;20603;-77
2021/06/28 12:00:49;;;;;;;3.40;3.10;;;33.60;99.50;;;;;;4991316;28;20948;-77
2021/06/28 12:03:24;;;;;;;2.97;2.77;;;34.00;99.70;;;;;;4992578;28;20577;-75
2021/06/28 12:05:51;;;;;;;3.60;3.17;;;34.40;99.00;;;;;;4991029;28;21177;-75
2021/06/28 12:08:25;;;;;;;3.90;2.40;;;34.80;98.00;;;;;;4990521;28;20616;-75
2021/06/28 12:10:59;;;;;;;3.50;3.00;;;35.00;95.80;;;;;;4993035;28;20577;-80
2021/06/28 12:13:44;;;;;;;5.77;5.27;;;35.20;94.20;;;;;;4994336;28;20578;-80
2021/06/28 12:16:32;;;;;;;4.17;3.87;;;35.30;92.50;;;;;;4992129;28;20733;-80
2021/06/28 12:19:03;;;;;;;2.90;2.70;;;35.40;91.90;;;;;;4990705;28;20602;-79
2021/06/28 12:21:31;;;;;;;2.80;2.43;;;35.20;90.70;;;;;;4993221;28;20577;-80
2021/06/28 12:24:11;;;;;;;2.97;2.77;;;35.10;90.10;;;;;;4993556;28;20633;-79
2021/06/28 12:26:57;;;;;;;3.50;2.70;;;34.90;89.50;;;;;;4991515;28;20609;-80
2021/06/28 12:29:36;;;;;;;2.80;2.57;;;34.60;88.90;;;;;;4990908;28;21213;-81
2021/06/28 12:32:12;;;;;;;2.47;2.27;;;34.30;88.10;;;;;;4992149;28;20569;-79
2021/06/28 12:34:44;;;;;;;3.00;2.70;;;34.00;88.50;;;;;;4991021;28;20674;-79
2021/06/28 12:37:09;;;;;;;2.40;2.20;;;33.60;88.20;;;;;;4991995;28;20570;-79
2021/06/28 12:39:35;;;;;;;2.43;1.93;;;33.30;88.00;;;;;;4974534;28;21199;-80
2021/06/28 12:42:16;;;;;;;2.40;2.20;;;33.00;87.80;;;;;;4990557;28;20203;-79
2021/06/28 12:44:44;;;;;;;1.90;1.70;;;32.70;88.00;;;;;;4991906;28;20657;-79
2021/06/28 12:47:12;;;;;;;2.50;2.30;;;32.30;87.90;;;;;;4990687;28;20577;-80
2021/06/28 12:49:39;;;;;;;2.43;1.60;;;32.10;89.00;;;;;;4995736;28;20577;-80
2021/06/28 12:52:24;;;;;;;2.10;1.90;;;31.90;89.70;;;;;;4995973;28;20589;-81